Time;durP1;ratioP1;P1;durP2;ratioP2;P2;SDS_P1;SDS_P2;PMS_P1;PMS_P2;Temp;Humidity;BMP_temperature;BMP_pressure;BME280_temperature;BME280_humidity;BME280_pressure;Samples;Min_cycle;Max_cycle;Signal;HPM_P1;HPM_P2
2022/04/03 00:00:42;;;;;;;2.05;1.00;;;-0.40;99.90;;;;;;6192647;23;20059;-86
2022/04/03 00:03:09;;;;;;;2.55;0.90;;;-0.20;99.90;;;;;;6191360;23;20020;-84
2022/04/03 00:05:39;;;;;;;1.85;0.80;;;-0.30;99.90;;;;;;6192234;23;20018;-84
2022/04/03 00:08:06;;;;;;;1.02;0.98;;;-1.60;99.90;;;;;;6216617;23;20027;-84
2022/04/03 00:10:35;;;;;;;;;;;-1.60;99.90;;;;;;6192874;23;20035;-84
2022/04/03 00:13:01;;;;;;;3.00;1.40;;;-1.30;99.90;;;;;;6192278;23;19923;-84
2022/04/03 00:15:27;;;;;;;1.50;1.00;;;-0.50;99.90;;;;;;6217234;23;20023;-84
2022/04/03 00:17:53;;;;;;;0.90;0.90;;;-0.50;99.90;;;;;;6215755;23;20274;-84
2022/04/03 00:20:22;;;;;;;1.15;1.15;;;-1.60;99.90;;;;;;6191944;23;20154;-84
2022/04/03 00:22:52;;;;;;;1.27;0.85;;;-1.50;99.90;;;;;;6191367;23;20433;-89
2022/04/03 00:25:19;;;;;;;0.82;0.82;;;-1.50;99.90;;;;;;6191764;23;20016;-85
2022/04/03 00:27:45;;;;;;;;;;;-1.60;99.90;;;;;;6217547;23;20067;-84
2022/04/03 00:30:12;;;;;;;1.73;0.85;;;-2.50;99.90;;;;;;6191246;23;19955;-85
2022/04/03 00:32:40;;;;;;;2.95;1.33;;;-0.70;99.90;;;;;;6193194;23;20013;-84
2022/04/03 00:35:07;;;;;;;1.80;1.70;;;-1.50;99.90;;;;;;6193552;23;20445;-85
2022/04/03 00:37:33;;;;;;;0.80;0.75;;;-1.60;99.90;;;;;;6218916;23;20020;-85
2022/04/03 00:40:01;;;;;;;5.63;1.00;;;-0.50;99.90;;;;;;6218686;23;20472;-84
2022/04/03 00:42:40;;;;;;;3.20;0.90;;;-0.90;99.90;;;;;;6193892;23;20062;-85
2022/04/03 00:45:07;;;;;;;0.60;0.60;;;-1.70;99.90;;;;;;6193262;23;20020;-84
2022/04/03 00:47:35;;;;;;;1.17;1.05;;;-1.80;99.90;;;;;;6193843;23;20016;-85
2022/04/03 00:50:05;;;;;;;1.25;0.77;;;-0.90;99.90;;;;;;6193214;23;20448;-84
2022/04/03 00:52:31;;;;;;;1.40;0.98;;;-1.90;99.90;;;;;;6170107;23;20016;-85
2022/04/03 00:54:57;;;;;;;1.77;1.65;;;-1.90;99.90;;;;;;6193087;23;20171;-84
2022/04/03 00:57:26;;;;;;;1.15;0.85;;;-0.70;99.90;;;;;;6218243;23;20012;-84
2022/04/03 00:59:54;;;;;;;0.70;0.70;;;-0.90;99.90;;;;;;6193347;23;20019;-89
2022/04/03 01:02:22;;;;;;;2.33;1.52;;;-0.60;99.90;;;;;;6193348;23;20094;-85
2022/04/03 01:04:49;;;;;;;1.92;1.45;;;-0.90;99.90;;;;;;6218537;23;20012;-84
2022/04/03 01:07:15;;;;;;;0.98;0.80;;;-0.80;99.90;;;;;;6193121;23;20849;-84
2022/04/03 01:09:56;;;;;;;1.38;1.10;;;-1.20;99.90;;;;;;6193593;23;20020;-84
2022/04/03 01:12:22;;;;;;;0.50;0.50;;;-1.00;99.90;;;;;;6218076;23;20047;-84
2022/04/03 01:14:48;;;;;;;0.77;0.77;;;-2.10;99.90;;;;;;6218975;23;20012;-85
2022/04/03 01:17:14;;;;;;;5.10;1.27;;;-0.90;99.90;;;;;;6167686;23;20031;-84
2022/04/03 01:19:41;;;;;;;0.80;0.80;;;-2.00;99.90;;;;;;6194025;23;20020;-84
2022/04/03 01:22:17;;;;;;;1.48;1.38;;;-1.20;99.90;;;;;;6192578;23;20031;-84
2022/04/03 01:24:44;;;;;;;2.13;0.90;;;-0.60;99.90;;;;;;6193391;23;20098;-84
2022/04/03 01:27:10;;;;;;;0.50;0.50;;;-0.70;99.90;;;;;;6217698;23;20046;-84
2022/04/03 01:29:36;;;;;;;0.70;0.70;;;-0.90;99.90;;;;;;6193444;23;20012;-85
2022/04/03 01:32:02;;;;;;;0.90;0.90;;;-1.10;99.90;;;;;;6192413;23;20151;-85
2022/04/03 01:34:28;;;;;;;0.53;0.37;;;-2.00;99.90;;;;;;6218777;23;20016;-84
2022/04/03 01:36:57;;;;;;;0.50;0.50;;;-0.90;99.90;;;;;;6193553;23;20095;-84
2022/04/03 01:39:25;;;;;;;0.80;0.80;;;-0.80;99.90;;;;;;6218602;23;20020;-85
2022/04/03 01:41:54;;;;;;;0.50;0.50;;;-2.90;99.90;;;;;;6168398;23;20220;-84
2022/04/03 01:44:21;;;;;;;0.40;0.40;;;-1.00;99.90;;;;;;6192339;23;20395;-83
2022/04/03 01:47:10;;;;;;;2.17;0.47;;;-0.50;99.90;;;;;;6218131;23;20170;-85
2022/04/03 01:49:36;;;;;;;0.90;0.90;;;-1.80;99.90;;;;;;6195433;23;20078;-85
2022/04/03 01:52:02;;;;;;;0.73;0.73;;;-1.60;99.90;;;;;;6168032;23;20020;-84
2022/04/03 01:54:31;;;;;;;5.10;1.03;;;-2.40;99.90;;;;;;6193228;23;20024;-84
2022/04/03 01:56:57;;;;;;;0.75;0.75;;;-0.60;99.90;;;;;;6193055;23;20020;-84
2022/04/03 01:59:25;;;;;;;2.70;1.60;;;-0.50;99.90;;;;;;6193542;23;20027;-85
2022/04/03 02:01:51;;;;;;;0.95;0.65;;;-0.70;99.90;;;;;;6218184;23;20016;-85
2022/04/03 02:04:22;;;;;;;0.60;0.57;;;-1.00;99.90;;;;;;6192452;23;20071;-84
2022/04/03 02:06:48;;;;;;;0.70;0.55;;;-1.80;99.90;;;;;;6218412;23;20340;-85
2022/04/03 02:09:17;;;;;;;0.30;0.30;;;-1.80;99.90;;;;;;6192246;23;20055;-84
2022/04/03 02:11:43;;;;;;;0.98;0.98;;;-1.20;99.90;;;;;;6193032;23;20016;-85
2022/04/03 02:14:09;;;;;;;10.23;3.33;;;-1.20;99.90;;;;;;6192317;23;20341;-84
2022/04/03 02:16:35;;;;;;;0.73;0.52;;;-1.80;99.90;;;;;;6168457;23;20027;-84
2022/04/03 02:19:01;;;;;;;2.00;0.93;;;-0.70;99.90;;;;;;6192903;23;20016;-88
2022/04/03 02:21:26;;;;;;;0.43;0.43;;;-2.00;99.90;;;;;;6217580;23;20035;-85
2022/04/03 02:23:52;;;;;;;0.63;0.63;;;-0.90;99.90;;;;;;6217758;23;20016;-84
2022/04/03 02:26:19;;;;;;;0.63;0.63;;;-1.00;99.90;;;;;;6217489;23;20096;-84
2022/04/03 02:28:47;;;;;;;3.17;1.88;;;-1.80;99.90;;;;;;6192892;23;20020;-84
2022/04/03 02:31:14;;;;;;;1.25;1.05;;;-0.90;99.90;;;;;;6191408;23;20016;-85
2022/04/03 02:33:42;;;;;;;0.50;0.50;;;-2.10;99.90;;;;;;6192884;23;20023;-84
2022/04/03 02:36:10;;;;;;;0.80;0.80;;;-1.20;99.90;;;;;;6217274;23;20566;-84
2022/04/03 02:38:36;;;;;;;4.53;1.90;;;-2.30;99.90;;;;;;6168429;23;20020;-84
2022/04/03 02:41:04;;;;;;;0.53;0.53;;;-2.10;99.90;;;;;;6168038;23;20016;-84
2022/04/03 02:43:32;;;;;;;2.78;1.23;;;-2.10;99.90;;;;;;6192242;23;20016;-84
2022/04/03 02:46:01;;;;;;;2.35;1.83;;;-2.20;99.90;;;;;;6192978;23;20016;-83
2022/04/03 02:48:26;;;;;;;2.90;1.13;;;-1.60;99.90;;;;;;6217157;23;20448;-84
2022/04/03 02:50:55;;;;;;;0.90;0.90;;;-2.10;99.90;;;;;;6217408;23;20059;-84
2022/04/03 02:53:28;;;;;;;1.55;1.42;;;-2.30;99.90;;;;;;6191683;23;20042;-85
2022/04/03 02:55:56;;;;;;;1.55;1.45;;;-2.30;99.90;;;;;;6192771;23;20016;-84
2022/04/03 02:58:23;;;;;;;1.52;1.42;;;-2.30;99.90;;;;;;6191539;23;20027;-87
2022/04/03 03:00:49;;;;;;;1.25;1.00;;;-1.30;99.90;;;;;;6217464;23;20020;-84
2022/04/03 03:03:15;;;;;;;1.80;1.45;;;-1.00;99.90;;;;;;6191840;23;20349;-84
2022/04/03 03:05:42;;;;;;;1.58;0.90;;;-0.90;99.90;;;;;;6167607;23;20393;-84
2022/04/03 03:08:10;;;;;;;0.60;0.60;;;-0.80;99.90;;;;;;6192328;23;20015;-89
2022/04/03 03:10:37;;;;;;;2.00;1.13;;;-1.90;99.90;;;;;;6168249;23;20032;-84
2022/04/03 03:13:03;;;;;;;0.98;0.93;;;-1.30;99.90;;;;;;6192822;23;20031;-84
2022/04/03 03:15:29;;;;;;;1.93;1.40;;;-2.70;99.90;;;;;;6216622;23;20008;-84
2022/04/03 03:17:57;;;;;;;1.58;1.48;;;-2.50;99.90;;;;;;6192613;23;20243;-84
2022/04/03 03:20:23;;;;;;;0.77;0.77;;;-0.70;99.90;;;;;;6191237;23;20027;-84
2022/04/03 03:22:50;;;;;;;3.83;1.95;;;-1.00;99.90;;;;;;6217283;23;20012;-84
2022/04/03 03:25:16;;;;;;;;;;;-0.10;99.90;;;;;;6192448;23;20065;-85
2022/04/03 03:27:42;;;;;;;0.82;0.73;;;-1.30;99.90;;;;;;6217625;23;19977;-84
2022/04/03 03:30:09;;;;;;;1.55;1.27;;;-1.20;99.90;;;;;;6192723;23;20016;-84
2022/04/03 03:32:37;;;;;;;2.72;1.27;;;-1.20;99.90;;;;;;6191704;23;20019;-84
2022/04/03 03:35:04;;;;;;;1.27;0.82;;;-1.70;99.90;;;;;;6192581;23;20024;-84
2022/04/03 03:37:32;;;;;;;;;;;-1.00;99.90;;;;;;6192399;23;20016;-88
2022/04/03 03:39:58;;;;;;;3.30;0.88;;;0.40;99.90;;;;;;6192447;23;19919;-84
2022/04/03 03:42:24;;;;;;;0.80;0.80;;;0.20;99.90;;;;;;6191887;23;20095;-85
2022/04/03 03:44:55;;;;;;;0.50;0.50;;;-0.80;99.90;;;;;;6217653;23;20027;-84
2022/04/03 03:47:23;;;;;;;7.20;2.88;;;-0.40;99.90;;;;;;6191909;23;20024;-84
2022/04/03 03:49:51;;;;;;;1.73;0.93;;;0.20;99.90;;;;;;6217642;23;20091;-84
2022/04/03 03:52:23;;;;;;;0.95;0.95;;;-0.70;99.90;;;;;;6192010;23;20095;-87
2022/04/03 03:54:50;;;;;;;1.40;1.30;;;-0.60;99.90;;;;;;6192508;23;20051;-84
2022/04/03 03:57:16;;;;;;;0.93;0.60;;;-0.80;99.90;;;;;;6191456;23;20016;-84
2022/04/03 03:59:44;;;;;;;1.25;0.88;;;0.10;99.90;;;;;;6192400;23;20031;-86
2022/04/03 04:02:13;;;;;;;1.13;1.02;;;0.50;99.90;;;;;;6217153;23;20153;-84
2022/04/03 04:04:42;;;;;;;1.08;1.00;;;-0.80;99.90;;;;;;6193255;23;20020;-84
2022/04/03 04:07:07;;;;;;;2.25;2.05;;;0.30;99.90;;;;;;6191866;23;20475;-84
2022/04/03 04:09:39;;;;;;;2.75;0.98;;;0.70;99.90;;;;;;6216871;23;20012;-85
2022/04/03 04:12:06;;;;;;;2.70;1.33;;;-0.70;99.90;;;;;;6192344;23;20070;-84
2022/04/03 04:14:41;;;;;;;7.88;1.67;;;-0.70;99.90;;;;;;6216943;23;20531;-84
2022/04/03 04:17:10;;;;;;;1.27;1.13;;;-1.60;99.90;;;;;;6192168;23;20448;-84
2022/04/03 04:19:36;;;;;;;2.88;1.00;;;-1.70;99.90;;;;;;6216482;23;20054;-84
2022/04/03 04:22:02;;;;;;;1.80;1.08;;;0.70;99.90;;;;;;6167782;23;20073;-84
2022/04/03 04:24:31;;;;;;;1.33;1.00;;;0.30;99.90;;;;;;6192072;23;20691;-84
2022/04/03 04:27:00;;;;;;;0.77;0.77;;;-0.70;99.90;;;;;;6192617;23;20027;-84
2022/04/03 04:29:28;;;;;;;6.90;0.88;;;-1.30;99.90;;;;;;6192263;23;20095;-84
2022/04/03 04:31:54;;;;;;;1.65;1.08;;;-0.10;99.90;;;;;;6191717;23;20023;-84
2022/04/03 04:34:20;;;;;;;0.90;0.90;;;0.70;99.90;;;;;;6190742;23;20028;-84
2022/04/03 04:36:46;;;;;;;1.05;1.05;;;0.50;99.90;;;;;;6217327;23;20020;-84
2022/04/03 04:39:11;;;;;;;0.82;0.82;;;0.10;99.90;;;;;;6192081;23;20452;-83
2022/04/03 04:41:37;;;;;;;1.25;1.20;;;-1.40;99.90;;;;;;6216846;23;20016;-83
2022/04/03 04:44:03;;;;;;;1.48;1.23;;;-1.30;99.90;;;;;;6216884;23;20087;-83
2022/04/03 04:46:29;;;;;;;0.90;0.73;;;-1.70;99.90;;;;;;6191182;23;20059;-84
2022/04/03 04:48:55;;;;;;;1.90;1.80;;;0.60;99.90;;;;;;6217319;23;20016;-84
2022/04/03 04:51:21;;;;;;;1.67;0.93;;;0.30;99.90;;;;;;6166548;23;20024;-90
2022/04/03 04:53:49;;;;;;;1.50;1.00;;;-0.60;99.90;;;;;;6217065;23;20027;-84
2022/04/03 05:00:30;;;;;;;1.20;1.20;;;0.40;99.90;;;;;;6068583;23;20070;-85
2022/04/03 05:02:56;;;;;;;0.55;0.55;;;-0.10;99.90;;;;;;6091665;23;20015;-84
2022/04/03 05:05:29;;;;;;;1.37;1.27;;;-1.00;99.90;;;;;;6043108;23;20460;-89
2022/04/03 05:07:57;;;;;;;0.90;0.82;;;0.60;99.90;;;;;;6171399;23;20016;-84
2022/04/03 05:10:27;;;;;;;4.22;1.42;;;-0.50;99.90;;;;;;6191269;23;20453;-90
2022/04/03 05:12:55;;;;;;;1.80;1.50;;;-0.60;99.90;;;;;;6217131;23;20052;-84
2022/04/03 05:15:21;;;;;;;1.50;1.30;;;0.50;99.90;;;;;;6217025;23;20067;-84
2022/04/03 05:17:51;;;;;;;2.67;1.20;;;-0.20;99.90;;;;;;6191674;23;20466;-85
2022/04/03 05:20:17;;;;;;;1.38;0.80;;;-0.60;99.90;;;;;;6193616;23;20027;-84
2022/04/03 05:22:43;;;;;;;0.80;0.80;;;-0.50;99.90;;;;;;6192642;23;20020;-84
2022/04/03 05:25:14;;;;;;;0.57;0.57;;;-0.50;99.90;;;;;;6218457;23;20020;-85
2022/04/03 05:27:41;;;;;;;1.70;1.27;;;-0.60;99.90;;;;;;6192941;23;20314;-84
2022/04/03 05:30:13;;;;;;;1.42;0.75;;;-0.60;99.90;;;;;;6218912;23;20103;-84
2022/04/03 05:32:42;;;;;;;1.63;0.95;;;-0.60;99.90;;;;;;6192419;23;20445;-84
2022/04/03 05:35:11;;;;;;;0.95;0.80;;;0.50;99.90;;;;;;6193170;23;20032;-84
2022/04/03 05:37:39;;;;;;;0.68;0.50;;;-1.60;99.90;;;;;;6217651;23;20027;-86
2022/04/03 05:40:10;;;;;;;1.77;1.67;;;-0.70;99.90;;;;;;6218404;23;20031;-85
2022/04/03 05:42:36;;;;;;;1.15;0.82;;;-0.70;99.90;;;;;;6192716;23;20047;-84
2022/04/03 05:45:04;;;;;;;3.08;2.60;;;-0.80;99.90;;;;;;6192987;23;20024;-87
2022/04/03 05:47:32;;;;;;;0.68;0.68;;;-0.70;99.90;;;;;;6192750;23;20074;-84
2022/04/03 05:50:01;;;;;;;0.73;0.73;;;0.00;99.90;;;;;;6193849;23;20103;-84
2022/04/03 05:52:27;;;;;;;0.98;0.88;;;-0.80;99.90;;;;;;6192909;23;20052;-88
2022/04/03 05:54:53;;;;;;;1.48;0.73;;;-0.30;99.90;;;;;;6218252;23;20023;-84
2022/04/03 05:57:19;;;;;;;2.38;2.17;;;-0.40;99.90;;;;;;6168235;23;20012;-84
2022/04/03 05:59:45;;;;;;;0.77;0.77;;;0.30;99.90;;;;;;6192536;23;20077;-86
2022/04/03 06:02:12;;;;;;;1.27;1.17;;;-0.70;99.90;;;;;;6218443;23;20020;-85
2022/04/03 06:04:38;;;;;;;2.13;1.48;;;0.50;99.90;;;;;;6192893;23;20114;-84
2022/04/03 06:07:04;;;;;;;3.55;1.05;;;0.90;99.90;;;;;;6193396;23;20020;-84
2022/04/03 06:09:32;;;;;;;1.40;1.30;;;-0.20;99.90;;;;;;6219018;23;20388;-90
2022/04/03 06:12:00;;;;;;;0.98;0.90;;;0.70;99.90;;;;;;6194590;23;20021;-85
2022/04/03 06:14:26;;;;;;;2.40;1.55;;;-0.30;99.90;;;;;;6193704;23;20016;-84
2022/04/03 06:16:52;;;;;;;1.33;1.15;;;-0.30;99.90;;;;;;6192530;23;20020;-85
2022/04/03 06:19:23;;;;;;;1.77;1.67;;;0.60;99.90;;;;;;6168793;23;20019;-84
2022/04/03 06:21:49;;;;;;;1.27;1.17;;;1.50;99.90;;;;;;6193113;23;20468;-84
2022/04/03 06:24:15;;;;;;;2.15;1.65;;;2.10;99.90;;;;;;6168905;23;20008;-84
2022/04/03 06:26:41;;;;;;;2.50;1.37;;;1.80;99.90;;;;;;6192998;23;20016;-85
2022/04/03 06:29:06;;;;;;;1.40;1.00;;;0.80;99.90;;;;;;6193203;23;20020;-85
2022/04/03 06:31:32;;;;;;;1.70;1.60;;;0.70;99.90;;;;;;6192440;23;20020;-89
2022/04/03 06:33:58;;;;;;;8.93;1.33;;;1.90;99.90;;;;;;6192987;23;20052;-83
2022/04/03 06:36:24;;;;;;;1.00;0.98;;;1.30;99.90;;;;;;6193215;23;20098;-83
2022/04/03 06:38:49;;;;;;;1.80;1.30;;;1.20;99.90;;;;;;6192467;23;20020;-84
2022/04/03 06:41:17;;;;;;;1.23;1.05;;;2.40;99.90;;;;;;6217923;23;20016;-84
2022/04/03 06:43:46;;;;;;;2.22;2.08;;;2.10;99.90;;;;;;6217348;23;20012;-83
2022/04/03 06:46:15;;;;;;;2.47;2.30;;;3.40;99.90;;;;;;6217511;23;20027;-83
2022/04/03 06:48:41;;;;;;;2.85;1.50;;;3.00;99.90;;;;;;6192165;23;20020;-84
2022/04/03 06:51:07;;;;;;;2.78;1.77;;;4.30;99.90;;;;;;6192687;23;20016;-83
2022/04/03 06:53:33;;;;;;;1.80;1.50;;;3.60;99.90;;;;;;6192223;23;20023;-85
2022/04/03 06:55:58;;;;;;;1.93;1.53;;;4.00;99.90;;;;;;6192739;23;20016;-83
2022/04/03 06:58:24;;;;;;;2.50;1.77;;;4.20;99.90;;;;;;6192917;23;20052;-86
2022/04/03 07:00:50;;;;;;;7.00;2.10;;;4.40;99.90;;;;;;6217228;23;20052;-84
2022/04/03 07:03:16;;;;;;;1.43;1.20;;;4.60;99.90;;;;;;6217927;23;20345;-84
2022/04/03 07:05:42;;;;;;;3.93;1.13;;;4.80;99.90;;;;;;6191951;23;20031;-85
2022/04/03 07:08:08;;;;;;;1.37;1.27;;;4.80;99.90;;;;;;6143134;23;20020;-83
2022/04/03 07:10:33;;;;;;;3.80;1.53;;;4.60;99.90;;;;;;6217999;23;20070;-83
2022/04/03 07:12:59;;;;;;;1.63;1.20;;;4.30;99.90;;;;;;6192480;23;20016;-83
2022/04/03 07:15:25;;;;;;;1.20;1.10;;;4.30;99.90;;;;;;6192575;23;20016;-83
2022/04/03 07:17:51;;;;;;;1.60;1.23;;;4.10;99.90;;;;;;6191848;23;20020;-83
2022/04/03 07:20:19;;;;;;;1.17;1.17;;;5.00;99.90;;;;;;6167903;23;20124;-85
2022/04/03 07:22:47;;;;;;;1.55;1.45;;;4.80;99.90;;;;;;6192719;23;20383;-84
2022/04/03 07:25:14;;;;;;;0.93;0.93;;;5.30;99.90;;;;;;6193541;23;20099;-83
2022/04/03 07:27:41;;;;;;;1.33;0.80;;;5.80;99.90;;;;;;6192712;23;20052;-91
2022/04/03 07:30:09;;;;;;;3.83;1.65;;;6.20;99.90;;;;;;6192375;23;20333;-84
2022/04/03 07:32:38;;;;;;;1.52;1.30;;;6.70;99.90;;;;;;6216789;23;20508;-84
2022/04/03 07:35:04;;;;;;;1.33;0.90;;;6.20;99.90;;;;;;6168296;23;20157;-83
2022/04/03 07:37:30;;;;;;;1.05;1.05;;;6.70;99.90;;;;;;6192288;23;20456;-82
2022/04/03 07:39:57;;;;;;;3.90;1.17;;;7.70;99.90;;;;;;6192194;23;20532;-82
2022/04/03 07:42:23;;;;;;;1.40;1.13;;;8.10;99.90;;;;;;6216281;23;20012;-84
2022/04/03 07:44:48;;;;;;;1.87;0.87;;;8.30;99.90;;;;;;6216110;23;20027;-85
2022/04/03 07:47:14;;;;;;;3.03;1.20;;;8.40;99.90;;;;;;6217889;23;20019;-86
2022/04/03 07:49:40;;;;;;;0.88;0.80;;;8.70;99.90;;;;;;6217668;23;20142;-85
2022/04/03 07:52:06;;;;;;;0.75;0.75;;;8.70;99.90;;;;;;6167083;23;20070;-85
2022/04/03 07:54:32;;;;;;;2.05;0.68;;;8.80;99.90;;;;;;6192866;23;20027;-85
2022/04/03 07:56:58;;;;;;;1.37;0.70;;;8.90;99.90;;;;;;6192568;23;20101;-86
2022/04/03 07:59:24;;;;;;;1.60;0.98;;;9.50;99.90;;;;;;6192764;23;20074;-83
2022/04/03 08:01:56;;;;;;;0.83;0.70;;;9.40;99.90;;;;;;6141783;23;20020;-83
2022/04/03 08:04:22;;;;;;;1.52;0.77;;;9.60;99.90;;;;;;6168185;23;20020;-83
2022/04/03 08:06:48;;;;;;;1.10;0.67;;;10.00;99.90;;;;;;6165943;23;20052;-84
2022/04/03 08:09:24;;;;;;;0.60;0.60;;;10.10;99.90;;;;;;6168369;23;20020;-89
2022/04/03 08:11:52;;;;;;;1.02;0.70;;;10.20;99.90;;;;;;6167558;23;20448;-90
2022/04/03 08:14:18;;;;;;;5.05;0.70;;;10.30;99.90;;;;;;6167355;23;20016;-84
2022/04/03 08:16:46;;;;;;;2.90;0.80;;;10.50;99.90;;;;;;6191855;23;20094;-87
2022/04/03 08:19:12;;;;;;;0.82;0.82;;;10.40;99.90;;;;;;6167040;23;20023;-85
2022/04/03 08:21:38;;;;;;;0.82;0.80;;;10.60;99.90;;;;;;6192977;23;20423;-86
2022/04/03 08:24:04;;;;;;;1.05;0.93;;;10.80;99.90;;;;;;6168204;23;20343;-84
2022/04/03 08:26:33;;;;;;;0.98;0.90;;;10.60;99.90;;;;;;6192332;23;20130;-86
2022/04/03 08:29:01;;;;;;;1.67;1.58;;;10.60;99.90;;;;;;6166920;23;20059;-87
2022/04/03 08:31:30;;;;;;;0.85;0.85;;;10.30;99.90;;;;;;6191671;23;20016;-83
2022/04/03 08:34:07;;;;;;;0.98;0.88;;;10.40;99.90;;;;;;6167746;23;20345;-87
2022/04/03 08:36:36;;;;;;;0.57;0.57;;;10.30;99.90;;;;;;6192425;23;20035;-86
2022/04/03 08:39:25;;;;;;;1.50;0.55;;;10.70;99.90;;;;;;6192269;23;20079;-87
2022/04/03 08:42:02;;;;;;;2.75;0.80;;;10.00;99.90;;;;;;6191800;23;20031;-86
2022/04/03 08:44:42;;;;;;;0.63;0.50;;;9.90;99.90;;;;;;6193398;23;20017;-87
2022/04/03 08:50:36;;;;;;;0.65;0.65;;;9.20;99.90;;;;;;6218304;23;20021;-89
2022/04/03 08:53:30;;;;;;;0.77;0.47;;;8.70;99.90;;;;;;6219003;23;20020;-87
2022/04/03 08:56:06;;;;;;;0.73;0.60;;;8.70;99.90;;;;;;6194881;23;20095;-87
2022/04/03 08:58:42;;;;;;;0.98;0.60;;;8.70;99.90;;;;;;6195045;23;20326;-87
2022/04/03 09:01:17;;;;;;;1.60;0.70;;;8.90;99.90;;;;;;6169298;23;20016;-87
2022/04/03 09:03:48;;;;;;;0.70;0.70;;;8.70;99.90;;;;;;6195837;23;20294;-90
2022/04/03 09:06:16;;;;;;;4.38;0.52;;;8.50;99.90;;;;;;6218258;23;20012;-86
2022/04/03 09:08:48;;;;;;;2.83;0.50;;;8.70;99.90;;;;;;6192992;23;20024;-86
2022/04/03 09:11:18;;;;;;;0.60;0.50;;;9.00;99.90;;;;;;6217882;23;20016;-88
2022/04/03 09:13:52;;;;;;;2.42;0.40;;;8.30;99.90;;;;;;6193575;23;20070;-87
2022/04/03 09:16:48;;;;;;;;;;;;;;;;;;;;;
2022/04/03 09:19:33;;;;;;;;;;;;;;;;;;;;;
2022/04/03 09:22:03;;;;;;;1.55;0.52;;;8.70;99.90;;;;;;6218704;23;20016;-89
2022/04/03 09:25:17;;;;;;;;;;;;;;;;;;;;;
2022/04/03 09:28:39;;;;;;;;;;;;;;;;;;;;;
2022/04/03 09:36:08;;;;;;;;;;;;;;;;;;;;;
2022/04/03 09:38:39;;;;;;;1.88;0.57;;;10.20;99.90;;;;;;6097792;23;20018;-89
2022/04/03 09:41:06;;;;;;;0.60;0.52;;;9.40;99.90;;;;;;6097526;23;20369;-87
2022/04/03 09:43:35;;;;;;;0.80;0.50;;;10.40;99.90;;;;;;6175867;23;20454;-86
2022/04/03 09:46:06;;;;;;;1.10;0.80;;;10.00;99.90;;;;;;6162662;23;20103;-83
2022/04/03 09:48:38;;;;;;;1.85;0.52;;;10.40;99.40;;;;;;6162850;23;20338;-88
2022/04/03 09:51:11;;;;;;;0.73;0.55;;;10.00;98.60;;;;;;6163975;23;20455;-86
2022/04/03 09:54:03;;;;;;;1.40;0.77;;;9.60;98.20;;;;;;6162732;23;20021;-88
2022/04/03 09:56:34;;;;;;;0.60;0.60;;;8.70;97.80;;;;;;6164643;23;20021;-88
2022/04/03 09:59:13;;;;;;;0.47;0.47;;;9.40;99.80;;;;;;6160580;23;20021;-87
2022/04/03 10:01:40;;;;;;;1.90;0.98;;;8.60;99.30;;;;;;6167395;23;20345;-83
2022/04/03 10:07:13;;;;;;;0.63;0.63;;;8.40;99.90;;;;;;6187085;23;20020;-87
2022/04/03 10:10:15;;;;;;;1.88;0.60;;;8.30;99.90;;;;;;6139278;23;20039;-87
2022/04/03 10:13:06;;;;;;;0.93;0.60;;;8.70;98.50;;;;;;6167674;23;20023;-87
2022/04/03 10:15:42;;;;;;;1.13;0.70;;;8.20;99.90;;;;;;6162991;23;20111;-89
2022/04/03 10:18:13;;;;;;;0.77;0.77;;;7.30;99.90;;;;;;6162383;23;20059;-90
2022/04/03 10:20:52;;;;;;;0.95;0.82;;;8.10;99.90;;;;;;6163345;23;20472;-91
2022/04/03 10:23:29;;;;;;;1.30;0.60;;;8.00;99.90;;;;;;6184734;23;20024;-89
2022/04/03 10:25:59;;;;;;;1.02;0.80;;;7.90;99.90;;;;;;6188111;23;20017;-90
2022/04/03 10:36:26;;;;;;;0.70;0.50;;;7.80;99.90;;;;;;6057887;23;20473;-87
2022/04/03 10:42:25;;;;;;;0.90;0.47;;;7.10;99.90;;;;;;6126299;23;20029;-89
2022/04/03 10:45:47;;;;;;;0.93;0.70;;;7.40;99.90;;;;;;6117923;23;20450;-96
2022/04/03 10:53:05;;;;;;;;;;;;;;;;;;;;;
2022/04/03 10:56:17;;;;;;;;;;;;;;;;;;;;;
2022/04/03 10:59:10;;;;;;;;;;;;;;;;;;;;;
2022/04/03 11:01:46;;;;;;;0.65;0.63;;;8.40;99.90;;;;;;5949671;24;20099;-90
2022/04/03 11:04:25;;;;;;;2.88;0.60;;;8.60;99.90;;;;;;5986392;23;20019;-89
2022/04/03 11:07:34;;;;;;;0.70;0.50;;;9.20;99.90;;;;;;5987418;23;20411;-89
2022/04/03 11:10:32;;;;;;;;;;;;;;;;;;;;;
2022/04/03 11:12:58;;;;;;;3.45;0.68;;;9.90;99.90;;;;;;6214186;23;20020;-86
2022/04/03 11:15:50;;;;;;;1.50;0.83;;;9.90;99.90;;;;;;6166364;23;20012;-87
2022/04/03 11:18:42;;;;;;;0.38;0.38;;;9.70;99.90;;;;;;6191641;23;20012;-85
2022/04/03 11:21:59;;;;;;;;;;;;;;;;;;;;;
2022/04/03 11:25:07;;;;;;;6.38;0.82;;;9.30;97.30;;;;;;6219346;23;20012;-93
2022/04/03 11:27:40;;;;;;;1.25;0.82;;;8.00;99.00;;;;;;6217328;23;20066;-88
2022/04/03 11:30:45;;;;;;;1.13;1.02;;;9.10;99.90;;;;;;6192158;23;20020;-89
2022/04/03 11:33:22;;;;;;;2.95;0.57;;;9.00;99.90;;;;;;6165108;23;20120;-89
2022/04/03 11:36:19;;;;;;;0.73;0.60;;;10.10;99.90;;;;;;6164094;23;20056;-89
2022/04/03 11:38:52;;;;;;;0.40;0.40;;;9.20;99.90;;;;;;6163514;23;20025;-90
2022/04/03 11:41:46;;;;;;;;;;;;;;;;;;;;;
2022/04/03 11:44:42;;;;;;;2.28;0.45;;;8.50;99.90;;;;;;6186871;23;20020;-89
2022/04/03 11:47:37;;;;;;;;;;;;;;;;;;;;;
2022/04/03 11:50:19;;;;;;;0.65;0.65;;;8.70;99.90;;;;;;6164890;23;20013;-90
2022/04/03 11:56:44;;;;;;;1.20;0.60;;;8.60;99.90;;;;;;6067856;23;20060;-90
2022/04/03 11:59:29;;;;;;;0.40;0.40;;;8.80;99.90;;;;;;6067628;23;20019;-89
2022/04/03 12:02:08;;;;;;;;;;;;;;;;;;;;;
2022/04/03 12:05:00;;;;;;;0.40;0.40;;;9.50;99.90;;;;;;6164455;23;20449;-90
2022/04/03 12:07:50;;;;;;;;;;;;;;;;;;;;;
2022/04/03 12:10:39;;;;;;;;;;;;;;;;;;;;;
2022/04/03 12:13:30;;;;;;;0.55;0.38;;;10.50;96.00;;;;;;6211809;23;20048;-89
2022/04/03 12:16:16;;;;;;;0.25;0.20;;;10.70;97.40;;;;;;6188230;23;20025;-88
2022/04/03 12:19:15;;;;;;;0.30;0.30;;;10.80;97.30;;;;;;6162601;23;20086;-88
2022/04/03 12:21:44;;;;;;;0.43;0.43;;;10.90;92.00;;;;;;6160414;23;20025;-85
2022/04/03 12:24:17;;;;;;;1.35;0.30;;;10.80;96.50;;;;;;6162434;23;20016;-93
2022/04/03 12:26:58;;;;;;;0.45;0.45;;;10.90;95.20;;;;;;6162010;23;20025;-90
2022/04/03 12:29:40;;;;;;;0.43;0.43;;;10.80;93.70;;;;;;6165487;23;20023;-92
2022/04/03 12:32:25;;;;;;;1.67;0.55;;;10.60;92.40;;;;;;6164525;23;20016;-91
2022/04/03 12:35:20;;;;;;;0.85;0.50;;;10.70;90.00;;;;;;6194877;23;20054;-91
2022/04/03 12:38:10;;;;;;;;;;;;;;;;;;;;;
2022/04/03 12:41:13;;;;;;;0.73;0.52;;;10.30;93.80;;;;;;6201204;23;20022;-91
2022/04/03 12:47:26;;;;;;;0.77;0.52;;;9.80;95.10;;;;;;6202819;23;20017;-91
2022/04/03 12:50:38;;;;;;;0.10;0.10;;;10.20;95.60;;;;;;6194923;23;20016;-92
2022/04/03 12:53:35;;;;;;;;;;;;;;;;;;;;;
2022/04/03 12:58:24;;;;;;;0.35;0.35;;;9.50;94.50;;;;;;6175596;23;20020;-90
2022/04/03 13:02:23;;;;;;;0.30;0.30;;;10.40;94.20;;;;;;6191479;23;20060;-91
2022/04/03 13:05:08;;;;;;;1.05;0.40;;;10.70;88.60;;;;;;6195958;23;20027;-91
2022/04/03 13:07:52;;;;;;;;;;;;;;;;;;;;;
2022/04/03 13:10:53;;;;;;;;;;;;;;;;;;;;;
2022/04/03 13:13:29;;;;;;;0.30;0.30;;;11.20;90.50;;;;;;6199470;23;20016;-91
2022/04/03 13:15:59;;;;;;;0.35;0.35;;;11.20;90.10;;;;;;6169929;23;20016;-90
2022/04/03 13:18:48;;;;;;;;;;;;;;;;;;;;;
2022/04/03 13:21:44;;;;;;;0.85;0.28;;;11.30;88.00;;;;;;6196620;23;20038;-93
2022/04/03 13:24:20;;;;;;;2.63;0.80;;;11.20;87.60;;;;;;6218825;23;20020;-90
2022/04/03 13:30:05;;;;;;;;;;;;;;;;;;;;;
2022/04/03 13:32:57;;;;;;;0.30;0.30;;;10.70;88.60;;;;;;6196231;23;20016;-92
2022/04/03 13:36:26;;;;;;;0.35;0.35;;;10.90;87.70;;;;;;6203742;23;20028;-91
2022/04/03 13:39:20;;;;;;;;;;;;;;;;;;;;;
2022/04/03 13:42:23;;;;;;;;;;;;;;;;;;;;;
2022/04/03 13:48:05;;;;;;;0.47;0.47;;;10.10;90.50;;;;;;6166329;23;20082;-90
2022/04/03 13:50:56;;;;;;;0.30;0.30;;;9.90;89.30;;;;;;6173594;23;20016;-91
2022/04/03 13:56:56;;;;;;;0.82;0.52;;;9.20;88.00;;;;;;6193055;23;20059;-92
2022/04/03 14:00:05;;;;;;;;;;;9.40;91.20;;;;;;6195862;23;20012;-91
2022/04/03 14:03:01;;;;;;;;;;;;;;;;;;;;;
2022/04/03 14:05:36;;;;;;;1.00;0.32;;;9.20;91.10;;;;;;6220173;23;20051;-91
2022/04/03 14:08:07;;;;;;;0.32;0.32;;;9.20;92.00;;;;;;6196718;23;20028;-90
2022/04/03 14:10:49;;;;;;;0.50;0.50;;;9.20;92.00;;;;;;6196221;23;20024;-91
2022/04/03 14:13:37;;;;;;;;;;;;;;;;;;;;;
2022/04/03 14:16:13;;;;;;;1.67;0.63;;;8.70;91.60;;;;;;6220419;23;20016;-91
2022/04/03 14:18:50;;;;;;;;;;;;;;;;;;;;;
2022/04/03 14:21:17;;;;;;;0.52;0.52;;;9.70;92.60;;;;;;6197385;23;20023;-90
2022/04/03 14:24:25;;;;;;;0.73;0.68;;;9.80;92.50;;;;;;6194499;23;20027;-91
2022/04/03 14:26:59;;;;;;;1.05;0.98;;;9.80;90.90;;;;;;6194697;23;20023;-91
2022/04/03 14:30:03;;;;;;;2.15;0.80;;;9.70;92.40;;;;;;6171210;23;20016;-91
2022/04/03 14:32:58;;;;;;;1.88;0.65;;;9.60;92.40;;;;;;6189860;23;20091;-91
2022/04/03 14:35:55;;;;;;;0.73;0.73;;;9.30;92.80;;;;;;6171690;23;20026;-91
2022/04/03 14:38:43;;;;;;;1.08;0.30;;;9.30;93.40;;;;;;6220395;23;20016;-91
2022/04/03 14:41:20;;;;;;;;;;;;;;;;;;;;;
2022/04/03 14:44:12;;;;;;;3.15;0.80;;;8.90;94.20;;;;;;6207959;23;20366;-91
2022/04/03 14:47:05;;;;;;;2.33;1.27;;;8.90;93.80;;;;;;6170785;23;20099;-90
2022/04/03 14:50:14;;;;;;;0.70;0.60;;;8.80;93.90;;;;;;6196569;23;20034;-90